Terminal Aerodrome Forecast
Issued by NWS

Home | Current Version | Previous Version | Text Only | Print | Product List | Glossary On
Versions: 1 2 3 4 5 6 7 8 9 10 11 12 13 14 15 16
000
FTUS46 KPDT 260534
TAFYKM
TAF
KYKM 260534Z 2606/2706 30008KT P6SM SCT080 BKN250
     FM261500 VRB06KT P6SM BKN250
     FM262000 VRB06KT P6SM SCT100 BKN250
     FM270200 25007KT P6SM BKN100 BKN250=

USA.gov is the U.S. government's official web portal to all federal, state and local government web resources and services.